Time;durP1;ratioP1;P1;durP2;ratioP2;P2;SDS_P1;SDS_P2;PMS_P1;PMS_P2;Temp;Humidity;BMP_temperature;BMP_pressure;BME280_temperature;BME280_humidity;BME280_pressure;Samples;Min_cycle;Max_cycle;Signal;HPM_P1;HPM_P2
2022/03/24 00:01:19;;;;;;;;;67.75;55.00;;;;;;;;5124676;27;47116;-85
2022/03/24 00:03:46;;;;;;;;;63.50;52.50;;;;;;;;5124845;27;45330;-86
2022/03/24 00:06:11;;;;;;;;;66.00;52.50;;;;;;;;5124425;27;45340;-86
2022/03/24 00:08:37;;;;;;;;;66.50;52.00;;;;;;;;5124347;27;45987;-86
2022/03/24 00:11:02;;;;;;;;;65.75;53.25;;;;;;;;5141638;27;47231;-88
2022/03/24 00:13:27;;;;;;;;;65.75;52.50;;;;;;;;5127324;27;45313;-86
2022/03/24 00:15:52;;;;;;;;;63.50;50.50;;;;;;;;5137513;27;45202;-86
2022/03/24 00:18:18;;;;;;;;;66.50;52.00;;;;;;;;5124438;27;46276;-86
2022/03/24 00:20:43;;;;;;;;;66.25;54.00;;;;;;;;5124128;27;48302;-85
2022/03/24 00:23:09;;;;;;;;;64.25;52.75;;;;;;;;5122246;27;45200;-87
2022/03/24 00:25:34;;;;;;;;;67.00;54.00;;;;;;;;5120978;27;45385;-86
2022/03/24 00:28:00;;;;;;;;;67.50;54.00;;;;;;;;5120803;27;45909;-85
2022/03/24 00:30:25;;;;;;;;;71.00;57.25;;;;;;;;5120653;27;47978;-86
2022/03/24 00:32:50;;;;;;;;;69.00;56.50;;;;;;;;5103919;27;45652;-87
2022/03/24 00:35:16;;;;;;;;;74.75;57.00;;;;;;;;5120887;27;45243;-87
2022/03/24 00:37:41;;;;;;;;;68.50;55.00;;;;;;;;5121712;27;45601;-85
2022/03/24 00:40:07;;;;;;;;;68.25;53.75;;;;;;;;5103826;27;47032;-87
2022/03/24 00:42:34;;;;;;;;;69.75;55.50;;;;;;;;5105925;27;45330;-86
2022/03/24 00:44:59;;;;;;;;;68.00;54.50;;;;;;;;5103687;27;45348;-86
2022/03/24 00:47:25;;;;;;;;;66.75;53.50;;;;;;;;5124310;27;46749;-88
2022/03/24 00:49:51;;;;;;;;;69.25;50.75;;;;;;;;5124192;27;47136;-86
2022/03/24 00:52:16;;;;;;;;;60.00;48.75;;;;;;;;5125743;27;45341;-87
2022/03/24 00:54:41;;;;;;;;;60.50;49.00;;;;;;;;5123355;27;45232;-87
2022/03/24 00:57:07;;;;;;;;;65.25;51.75;;;;;;;;5120441;27;47468;-86
2022/03/24 00:59:32;;;;;;;;;63.00;48.75;;;;;;;;5120646;27;48077;-87
2022/03/24 01:01:59;;;;;;;;;57.00;48.00;;;;;;;;5120726;27;45246;-87
2022/03/24 01:04:24;;;;;;;;;66.00;53.00;;;;;;;;5120621;27;45342;-86
2022/03/24 01:06:49;;;;;;;;;66.00;51.25;;;;;;;;5122864;27;45519;-88
2022/03/24 01:09:14;;;;;;;;;62.25;49.25;;;;;;;;5121074;27;46978;-88
2022/03/24 01:11:40;;;;;;;;;60.25;49.50;;;;;;;;5120319;27;45253;-88
2022/03/24 01:14:07;;;;;;;;;62.00;49.00;;;;;;;;5121715;27;45391;-86
2022/03/24 01:16:32;;;;;;;;;57.00;46.25;;;;;;;;5103113;27;46107;-86
2022/03/24 01:18:58;;;;;;;;;59.00;48.75;;;;;;;;5120443;27;48214;-87
2022/03/24 01:21:23;;;;;;;;;59.25;47.00;;;;;;;;5106063;27;46255;-87
2022/03/24 01:23:48;;;;;;;;;62.25;50.25;;;;;;;;5125597;27;45266;-86
2022/03/24 01:26:15;;;;;;;;;59.75;46.25;;;;;;;;5123134;27;45500;-87
2022/03/24 01:28:41;;;;;;;;;59.50;47.25;;;;;;;;5106425;27;47434;-85
2022/03/24 01:31:08;;;;;;;;;59.00;47.50;;;;;;;;5103369;27;46121;-87
2022/03/24 01:33:34;;;;;;;;;58.25;46.50;;;;;;;;5124260;27;45310;-87
2022/03/24 01:35:59;;;;;;;;;56.00;45.50;;;;;;;;5102591;27;46090;-87
2022/03/24 01:38:24;;;;;;;;;57.50;45.75;;;;;;;;5119915;27;47147;-87
2022/03/24 01:40:50;;;;;;;;;60.50;48.00;;;;;;;;5120205;27;45224;-87
2022/03/24 01:43:17;;;;;;;;;60.50;48.50;;;;;;;;5121200;27;45494;-85
2022/03/24 01:45:42;;;;;;;;;60.00;46.00;;;;;;;;5119581;27;47195;-86
2022/03/24 01:48:11;;;;;;;;;56.75;46.50;;;;;;;;5119859;27;47380;-86
2022/03/24 01:50:36;;;;;;;;;59.00;48.50;;;;;;;;5120949;27;45258;-86
2022/03/24 01:53:02;;;;;;;;;59.50;47.75;;;;;;;;5121913;27;45224;-87
2022/03/24 01:55:28;;;;;;;;;56.25;46.00;;;;;;;;5105924;27;45883;-86
2022/03/24 01:57:53;;;;;;;;;53.00;44.25;;;;;;;;5106137;27;47683;-86
2022/03/24 02:00:19;;;;;;;;;54.25;44.75;;;;;;;;5126831;27;44646;-86
2022/03/24 02:02:44;;;;;;;;;53.50;44.75;;;;;;;;5120714;27;45290;-87
2022/03/24 02:05:10;;;;;;;;;57.75;46.75;;;;;;;;5119685;27;46001;-86
2022/03/24 02:07:36;;;;;;;;;55.25;45.50;;;;;;;;5120515;27;45454;-87
2022/03/24 02:10:01;;;;;;;;;55.50;46.00;;;;;;;;5120671;27;45306;-87
2022/03/24 02:12:27;;;;;;;;;55.50;45.75;;;;;;;;5120856;27;45271;-86
2022/03/24 02:14:52;;;;;;;;;56.25;47.50;;;;;;;;5119291;27;46426;-88
2022/03/24 02:17:19;;;;;;;;;58.00;46.25;;;;;;;;5119187;27;47872;-86
2022/03/24 02:19:45;;;;;;;;;54.75;45.00;;;;;;;;5102148;27;45333;-86
2022/03/24 02:22:10;;;;;;;;;57.25;46.25;;;;;;;;5120518;27;45335;-87
2022/03/24 02:24:37;;;;;;;;;49.75;41.50;;;;;;;;5102626;27;46128;-87
2022/03/24 02:27:02;;;;;;;;;53.75;44.50;;;;;;;;5124565;27;46195;-87
2022/03/24 02:29:28;;;;;;;;;55.75;46.50;;;;;;;;5123479;27;45344;-87
2022/03/24 02:31:53;;;;;;;;;57.00;46.00;;;;;;;;5123003;27;45244;-85
2022/03/24 02:34:40;;;;;;;;;55.75;45.50;;;;;;;;5127512;27;45414;-86
2022/03/24 02:37:12;;;;;;;;;53.75;43.50;;;;;;;;5105059;27;47615;-87
2022/03/24 02:39:39;;;;;;;;;56.25;45.00;;;;;;;;5124072;27;45479;-86
2022/03/24 02:42:04;;;;;;;;;55.25;43.75;;;;;;;;5105473;27;45507;-86
2022/03/24 02:44:30;;;;;;;;;56.50;45.75;;;;;;;;5124015;27;45213;-87
2022/03/24 02:46:56;;;;;;;;;47.25;40.00;;;;;;;;5123673;27;45341;-87
2022/03/24 02:49:22;;;;;;;;;53.50;43.75;;;;;;;;5123945;27;45388;-87
2022/03/24 02:51:49;;;;;;;;;49.25;41.75;;;;;;;;5107501;27;45338;-87
2022/03/24 02:54:14;;;;;;;;;52.25;42.50;;;;;;;;5124274;27;45340;-87
2022/03/24 02:56:42;;;;;;;;;52.75;43.00;;;;;;;;5122346;27;47484;-86
2022/03/24 02:59:07;;;;;;;;;52.00;43.50;;;;;;;;5122594;27;45675;-86
2022/03/24 03:01:38;;;;;;;;;52.25;41.50;;;;;;;;5127386;27;45279;-87
2022/03/24 03:04:03;;;;;;;;;51.75;42.50;;;;;;;;5125848;27;47248;-86
2022/03/24 03:06:29;;;;;;;;;50.25;40.25;;;;;;;;5107821;27;46108;-87
2022/03/24 03:08:54;;;;;;;;;51.75;42.75;;;;;;;;5124469;27;45914;-87
2022/03/24 03:11:22;;;;;;;;;54.00;45.00;;;;;;;;5123808;27;45304;-87
2022/03/24 03:13:49;;;;;;;;;51.75;42.75;;;;;;;;5104949;27;46269;-86
2022/03/24 03:16:14;;;;;;;;;50.00;41.25;;;;;;;;5123564;27;45318;-87
2022/03/24 03:18:43;;;;;;;;;50.00;41.00;;;;;;;;5124837;27;45497;-87
2022/03/24 03:21:11;;;;;;;;;51.50;39.75;;;;;;;;5123695;27;45266;-87
2022/03/24 03:23:38;;;;;;;;;52.75;43.50;;;;;;;;5121776;27;46157;-87
2022/03/24 03:26:04;;;;;;;;;51.50;44.00;;;;;;;;5123288;27;45345;-86
2022/03/24 03:28:29;;;;;;;;;55.00;44.25;;;;;;;;5123297;27;45218;-87
2022/03/24 03:30:55;;;;;;;;;52.75;42.50;;;;;;;;5121910;27;45184;-86
2022/03/24 03:33:20;;;;;;;;;55.75;45.75;;;;;;;;5123907;27;45688;-86
2022/03/24 03:35:45;;;;;;;;;50.25;42.25;;;;;;;;5125081;27;45591;-87
2022/03/24 03:38:11;;;;;;;;;53.75;45.75;;;;;;;;5125676;27;45596;-86
2022/03/24 03:40:36;;;;;;;;;54.50;45.00;;;;;;;;5125483;27;45271;-86
2022/03/24 03:43:01;;;;;;;;;56.75;45.75;;;;;;;;5107756;27;47149;-86
2022/03/24 03:45:26;;;;;;;;;60.75;49.00;;;;;;;;5122663;27;45369;-87
2022/03/24 03:47:52;;;;;;;;;53.50;43.50;;;;;;;;5122854;27;45395;-86
2022/03/24 03:50:17;;;;;;;;;53.00;43.25;;;;;;;;5121957;27;45387;-87
2022/03/24 03:52:42;;;;;;;;;53.50;42.75;;;;;;;;5122632;27;45327;-87
2022/03/24 03:55:09;;;;;;;;;54.00;44.50;;;;;;;;5121636;27;47315;-86
2022/03/24 03:57:34;;;;;;;;;56.25;44.50;;;;;;;;5121237;27;45434;-85
2022/03/24 04:00:52;;;;;;;;;52.50;43.00;;;;;;;;5123181;27;45419;-87
2022/03/24 04:02:47;;;;;;;;;53.25;43.00;;;;;;;;5124224;27;45975;-87
2022/03/24 04:05:12;;;;;;;;;51.75;43.75;;;;;;;;5121103;27;47267;-87
2022/03/24 04:07:37;;;;;;;;;57.25;45.00;;;;;;;;5122817;27;45976;-87
2022/03/24 04:10:03;;;;;;;;;43.00;36.75;;;;;;;;5124266;27;45265;-85
2022/03/24 04:12:29;;;;;;;;;54.00;42.50;;;;;;;;5126054;27;45531;-87
2022/03/24 04:14:54;;;;;;;;;52.50;42.25;;;;;;;;5127940;27;47412;-87
2022/03/24 04:17:19;;;;;;;;;45.00;39.75;;;;;;;;5143310;27;45242;-87
2022/03/24 04:19:44;;;;;;;;;51.00;43.00;;;;;;;;5143459;27;45309;-86
2022/03/24 04:22:09;;;;;;;;;44.25;37.25;;;;;;;;5143081;27;45275;-87
2022/03/24 04:24:35;;;;;;;;;51.00;42.75;;;;;;;;5124282;27;47145;-85
2022/03/24 04:27:00;;;;;;;;;50.00;39.00;;;;;;;;5145592;27;45334;-87
2022/03/24 04:29:25;;;;;;;;;49.50;40.75;;;;;;;;5143276;27;45367;-87
2022/03/24 04:31:51;;;;;;;;;53.75;43.75;;;;;;;;5124312;27;46967;-87
2022/03/24 04:34:16;;;;;;;;;54.75;44.00;;;;;;;;5124298;27;48070;-87
2022/03/24 04:36:41;;;;;;;;;52.00;43.00;;;;;;;;5142657;27;45255;-87
2022/03/24 04:39:07;;;;;;;;;54.75;44.50;;;;;;;;5124637;27;45786;-86
2022/03/24 04:41:32;;;;;;;;;50.75;42.50;;;;;;;;5127539;27;46088;-87
2022/03/24 04:43:58;;;;;;;;;53.00;43.25;;;;;;;;5127918;27;48073;-87
2022/03/24 04:46:23;;;;;;;;;48.00;40.25;;;;;;;;5123950;27;45345;-86
2022/03/24 04:48:49;;;;;;;;;54.50;42.50;;;;;;;;5125403;27;45575;-87
2022/03/24 04:51:16;;;;;;;;;53.75;44.25;;;;;;;;5120668;27;47298;-86
2022/03/24 04:53:42;;;;;;;;;55.75;45.00;;;;;;;;5122686;27;47720;-87
2022/03/24 04:56:08;;;;;;;;;52.75;43.75;;;;;;;;5121196;27;45279;-88
2022/03/24 04:58:34;;;;;;;;;51.00;41.00;;;;;;;;5103794;27;45287;-87
2022/03/24 05:01:00;;;;;;;;;53.50;44.25;;;;;;;;5120553;27;46668;-88
2022/03/24 05:03:25;;;;;;;;;55.75;44.25;;;;;;;;5103141;27;46982;-88
2022/03/24 05:05:50;;;;;;;;;54.75;43.75;;;;;;;;5120588;27;45595;-88
2022/03/24 05:08:15;;;;;;;;;57.25;47.75;;;;;;;;5103462;27;45359;-87
2022/03/24 05:10:40;;;;;;;;;52.75;42.00;;;;;;;;5121861;27;45317;-88
2022/03/24 05:13:06;;;;;;;;;56.75;45.75;;;;;;;;5103441;27;47379;-85
2022/03/24 05:15:32;;;;;;;;;47.75;38.00;;;;;;;;5132806;27;45289;-86
2022/03/24 05:17:57;;;;;;;;;51.00;41.00;;;;;;;;5146706;27;45254;-85
2022/03/24 05:20:23;;;;;;;;;53.50;44.75;;;;;;;;5126368;27;46884;-85
2022/03/24 05:22:48;;;;;;;;;51.75;43.75;;;;;;;;5128656;27;47356;-84
2022/03/24 05:25:14;;;;;;;;;53.00;42.75;;;;;;;;5122664;27;45349;-84
2022/03/24 05:27:39;;;;;;;;;54.50;43.25;;;;;;;;5121380;27;45252;-83
2022/03/24 05:30:04;;;;;;;;;51.25;42.75;;;;;;;;5102517;27;47197;-85
2022/03/24 05:32:30;;;;;;;;;56.75;43.75;;;;;;;;5102463;27;47300;-85
2022/03/24 05:34:55;;;;;;;;;51.25;44.25;;;;;;;;5102771;27;45310;-85
2022/03/24 05:37:20;;;;;;;;;52.50;42.25;;;;;;;;5120858;27;45304;-85
2022/03/24 05:39:46;;;;;;;;;51.25;43.25;;;;;;;;5102313;27;46042;-83
2022/03/24 05:42:11;;;;;;;;;56.00;44.50;;;;;;;;5102362;27;47369;-85
2022/03/24 05:44:36;;;;;;;;;52.50;42.25;;;;;;;;5103872;27;45287;-85
2022/03/24 05:47:02;;;;;;;;;51.25;42.25;;;;;;;;5121151;27;45275;-86
2022/03/24 05:49:28;;;;;;;;;50.50;42.00;;;;;;;;5101580;27;46075;-86
2022/03/24 05:51:53;;;;;;;;;52.50;41.00;;;;;;;;5123276;27;45273;-85
2022/03/24 05:54:19;;;;;;;;;56.50;45.50;;;;;;;;5122752;27;45226;-85
2022/03/24 05:56:44;;;;;;;;;56.25;45.25;;;;;;;;5098930;27;46534;-86
2022/03/24 05:59:10;;;;;;;;;51.75;41.50;;;;;;;;5100782;27;46146;-85
2022/03/24 06:01:35;;;;;;;;;57.00;46.00;;;;;;;;5120310;27;45560;-83
2022/03/24 06:04:01;;;;;;;;;54.75;46.25;;;;;;;;5101640;27;45707;-83
2022/03/24 06:06:27;;;;;;;;;54.00;44.50;;;;;;;;5119453;27;45246;-85
2022/03/24 06:08:56;;;;;;;;;61.00;48.75;;;;;;;;5124637;27;45257;-82
2022/03/24 06:11:23;;;;;;;;;56.00;45.50;;;;;;;;5123965;27;45329;-83
2022/03/24 06:13:48;;;;;;;;;50.00;42.00;;;;;;;;5101142;27;45587;-83
2022/03/24 06:16:13;;;;;;;;;54.25;43.75;;;;;;;;5123740;27;45474;-87
2022/03/24 06:18:39;;;;;;;;;71.25;57.75;;;;;;;;5124573;27;45273;-87
2022/03/24 06:21:04;;;;;;;;;59.25;46.00;;;;;;;;5126383;27;45348;-87
2022/03/24 06:23:30;;;;;;;;;55.25;45.25;;;;;;;;5128079;27;45185;-86
2022/03/24 06:25:55;;;;;;;;;49.50;40.50;;;;;;;;5127083;27;45191;-86
2022/03/24 06:28:20;;;;;;;;;57.25;46.25;;;;;;;;5109544;27;47161;-85
2022/03/24 06:30:45;;;;;;;;;55.25;43.00;;;;;;;;5118679;27;45353;-84
2022/03/24 06:33:11;;;;;;;;;53.50;44.00;;;;;;;;5101126;27;45327;-83
2022/03/24 06:35:36;;;;;;;;;58.25;44.00;;;;;;;;5121423;27;45285;-83
2022/03/24 06:38:02;;;;;;;;;57.00;46.25;;;;;;;;5105096;27;46732;-83
2022/03/24 06:40:28;;;;;;;;;52.50;44.00;;;;;;;;5099079;27;47026;-83
2022/03/24 06:42:54;;;;;;;;;57.75;48.50;;;;;;;;5123298;27;45333;-82
2022/03/24 06:45:19;;;;;;;;;58.00;46.75;;;;;;;;5123812;27;45427;-83
2022/03/24 06:47:45;;;;;;;;;54.00;43.75;;;;;;;;5106613;27;45797;-82
2022/03/24 06:50:12;;;;;;;;;51.25;44.00;;;;;;;;5124638;27;46386;-83
2022/03/24 06:52:37;;;;;;;;;58.00;47.25;;;;;;;;5124962;27;45216;-83
2022/03/24 06:55:03;;;;;;;;;55.50;45.00;;;;;;;;5121611;27;45266;-84
2022/03/24 06:57:28;;;;;;;;;58.75;46.25;;;;;;;;5125393;27;45209;-83
2022/03/24 06:59:53;;;;;;;;;60.25;48.50;;;;;;;;5111475;27;47512;-84
2022/03/24 07:02:19;;;;;;;;;56.00;44.25;;;;;;;;5104786;27;45603;-82
2022/03/24 07:04:44;;;;;;;;;58.75;46.25;;;;;;;;5123655;27;45377;-85
2022/03/24 07:07:09;;;;;;;;;59.50;48.50;;;;;;;;5120682;27;47260;-85
2022/03/24 07:09:35;;;;;;;;;57.00;46.50;;;;;;;;5123606;27;45427;-81
2022/03/24 07:12:00;;;;;;;;;65.50;50.50;;;;;;;;5124990;27;45338;-83
2022/03/24 07:14:26;;;;;;;;;60.50;48.00;;;;;;;;5123301;27;45388;-85
2022/03/24 07:16:52;;;;;;;;;62.00;49.75;;;;;;;;5124890;27;45639;-84
2022/03/24 07:19:17;;;;;;;;;57.75;47.75;;;;;;;;5141946;27;47150;-84
2022/03/24 07:21:42;;;;;;;;;34.50;31.25;;;;;;;;5125077;27;45942;-84
2022/03/24 07:24:07;;;;;;;;;58.75;49.25;;;;;;;;5131515;27;45293;-85
2022/03/24 07:26:32;;;;;;;;;58.25;48.25;;;;;;;;5102728;27;45871;-84
2022/03/24 07:28:58;;;;;;;;;57.25;46.00;;;;;;;;5120338;27;46463;-85
2022/03/24 07:31:23;;;;;;;;;59.50;47.25;;;;;;;;5118279;27;45318;-85
2022/03/24 07:33:49;;;;;;;;;59.75;48.50;;;;;;;;5125199;27;45238;-85
2022/03/24 07:36:15;;;;;;;;;69.25;52.50;;;;;;;;5105904;27;46113;-85
2022/03/24 07:38:41;;;;;;;;;81.50;62.00;;;;;;;;5104149;27;48176;-85
2022/03/24 07:41:08;;;;;;;;;73.50;57.25;;;;;;;;5122931;27;45149;-83
2022/03/24 07:43:33;;;;;;;;;67.25;54.25;;;;;;;;5122412;27;45363;-85
2022/03/24 07:45:58;;;;;;;;;79.50;67.00;;;;;;;;5123569;27;45539;-86
2022/03/24 07:48:27;;;;;;;;;84.75;72.50;;;;;;;;5122648;27;45262;-84
2022/03/24 07:50:53;;;;;;;;;58.50;48.25;;;;;;;;5124515;27;45378;-85
2022/03/24 07:53:22;;;;;;;;;56.00;44.50;;;;;;;;5122672;27;45388;-85
2022/03/24 07:55:48;;;;;;;;;55.75;45.00;;;;;;;;5122953;27;45215;-82
2022/03/24 07:58:14;;;;;;;;;74.75;61.25;;;;;;;;5122831;27;45343;-79
2022/03/24 08:00:40;;;;;;;;;58.75;47.25;;;;;;;;5122940;27;45222;-82
2022/03/24 08:03:12;;;;;;;;;54.00;45.00;;;;;;;;5124745;27;45312;-86
2022/03/24 08:05:37;;;;;;;;;61.25;47.25;;;;;;;;5119704;27;45554;-81
2022/03/24 08:08:06;;;;;;;;;70.25;54.25;;;;;;;;5123572;27;46475;-81
2022/03/24 08:10:31;;;;;;;;;62.75;49.25;;;;;;;;5105218;27;45433;-80
2022/03/24 08:12:57;;;;;;;;;54.75;45.75;;;;;;;;5103562;27;45441;-84
2022/03/24 08:15:22;;;;;;;;;61.25;47.75;;;;;;;;5127818;27;47140;-84
2022/03/24 08:17:47;;;;;;;;;55.75;43.25;;;;;;;;5142771;27;46509;-84
2022/03/24 08:20:12;;;;;;;;;56.25;45.50;;;;;;;;5124444;27;45336;-84
2022/03/24 08:22:38;;;;;;;;;55.25;43.75;;;;;;;;5123824;27;45374;-84
2022/03/24 08:25:08;;;;;;;;;51.25;42.75;;;;;;;;5142736;27;45359;-84
2022/03/24 08:27:33;;;;;;;;;52.75;43.00;;;;;;;;5142680;27;45441;-79
2022/03/24 08:29:58;;;;;;;;;65.75;51.50;;;;;;;;5142307;27;45297;-79
2022/03/24 08:32:24;;;;;;;;;78.50;64.50;;;;;;;;5142593;27;45374;-80
2022/03/24 08:34:49;;;;;;;;;74.75;59.75;;;;;;;;5141742;27;46310;-83
2022/03/24 08:37:14;;;;;;;;;57.75;47.25;;;;;;;;5142661;27;46354;-82
2022/03/24 08:39:39;;;;;;;;;55.00;44.00;;;;;;;;5129075;27;45222;-83
2022/03/24 08:42:05;;;;;;;;;51.00;42.75;;;;;;;;5126161;27;45479;-83
2022/03/24 08:44:30;;;;;;;;;56.50;44.50;;;;;;;;5101622;27;46141;-80
2022/03/24 08:46:55;;;;;;;;;53.25;44.00;;;;;;;;5099454;27;48085;-83
2022/03/24 08:49:20;;;;;;;;;51.50;43.00;;;;;;;;5099550;27;45559;-82
2022/03/24 08:51:46;;;;;;;;;52.00;41.75;;;;;;;;5100391;27;45599;-81
2022/03/24 08:54:11;;;;;;;;;54.25;44.25;;;;;;;;5100752;27;45335;-82
2022/03/24 08:56:36;;;;;;;;;48.75;40.25;;;;;;;;5099226;27;45442;-81
2022/03/24 08:59:02;;;;;;;;;60.75;49.00;;;;;;;;5096995;27;45411;-81
2022/03/24 09:01:28;;;;;;;;;53.00;43.75;;;;;;;;5098858;27;45415;-80
2022/03/24 09:03:54;;;;;;;;;53.00;43.25;;;;;;;;5098636;27;45388;-80
2022/03/24 09:06:19;;;;;;;;;52.75;44.00;;;;;;;;5098142;27;48600;-78
2022/03/24 09:08:44;;;;;;;;;56.00;45.50;;;;;;;;5099394;27;45427;-82
2022/03/24 09:11:09;;;;;;;;;54.00;44.00;;;;;;;;5098667;27;45429;-83
2022/03/24 09:13:38;;;;;;;;;50.00;41.25;;;;;;;;5103632;27;45489;-85
2022/03/24 09:16:03;;;;;;;;;53.00;42.75;;;;;;;;5101065;27;45702;-81
2022/03/24 09:18:28;;;;;;;;;52.25;42.75;;;;;;;;5100488;27;45351;-82
2022/03/24 09:20:54;;;;;;;;;50.25;43.00;;;;;;;;5100845;27;45330;-84
2022/03/24 09:23:19;;;;;;;;;49.25;41.75;;;;;;;;5100407;27;45193;-83
2022/03/24 09:25:45;;;;;;;;;53.25;43.50;;;;;;;;5100515;27;46325;-84
2022/03/24 09:28:10;;;;;;;;;62.50;48.25;;;;;;;;5099035;27;45377;-83
2022/03/24 09:30:36;;;;;;;;;53.25;44.25;;;;;;;;5100592;27;45321;-83
2022/03/24 09:33:01;;;;;;;;;49.25;41.25;;;;;;;;5101385;27;45322;-86
2022/03/24 09:35:27;;;;;;;;;53.50;42.75;;;;;;;;5100585;27;46656;-86
2022/03/24 09:37:52;;;;;;;;;50.50;40.50;;;;;;;;5099078;27;45808;-85
2022/03/24 09:40:17;;;;;;;;;51.25;41.50;;;;;;;;5102585;27;45315;-86
2022/03/24 09:42:42;;;;;;;;;51.50;43.25;;;;;;;;5102124;27;45913;-83
2022/03/24 09:45:10;;;;;;;;;54.75;42.75;;;;;;;;5106553;27;45472;-83
2022/03/24 09:47:38;;;;;;;;;47.25;40.00;;;;;;;;5122596;27;45414;-84
2022/03/24 09:50:05;;;;;;;;;50.00;39.75;;;;;;;;5102150;27;45309;-83
2022/03/24 09:52:31;;;;;;;;;49.00;39.25;;;;;;;;5120412;27;45412;-83
2022/03/24 09:54:56;;;;;;;;;52.50;42.25;;;;;;;;5102106;27;47664;-83
2022/03/24 09:57:22;;;;;;;;;47.50;40.75;;;;;;;;5121314;27;45481;-83
2022/03/24 09:59:47;;;;;;;;;45.75;38.25;;;;;;;;5102034;27;45350;-84
2022/03/24 10:02:12;;;;;;;;;37.75;32.50;;;;;;;;5101934;27;47384;-83
2022/03/24 10:04:48;;;;;;;;;44.50;37.75;;;;;;;;5120498;27;45422;-84
2022/03/24 10:07:14;;;;;;;;;49.25;41.00;;;;;;;;5120360;27;45310;-85
2022/03/24 10:09:46;;;;;;;;;47.50;39.50;;;;;;;;5120553;27;45528;-83
2022/03/24 10:12:18;;;;;;;;;57.50;45.00;;;;;;;;5102661;27;46212;-79
2022/03/24 10:14:43;;;;;;;;;51.75;41.75;;;;;;;;5122063;27;46224;-78
2022/03/24 10:17:10;;;;;;;;;51.25;41.50;;;;;;;;5125077;27;45571;-79
2022/03/24 10:19:36;;;;;;;;;56.50;46.00;;;;;;;;5124060;27;45507;-79
2022/03/24 10:22:11;;;;;;;;;49.00;40.75;;;;;;;;5110164;27;46049;-77
2022/03/24 10:24:41;;;;;;;;;48.50;40.50;;;;;;;;5109265;27;48116;-81
2022/03/24 10:27:06;;;;;;;;;50.00;41.25;;;;;;;;5131183;27;45390;-80
2022/03/24 10:29:32;;;;;;;;;50.25;41.25;;;;;;;;5127347;27;45342;-80
2022/03/24 10:32:03;;;;;;;;;53.00;44.00;;;;;;;;5119486;27;46212;-81
2022/03/24 10:34:31;;;;;;;;;47.00;39.00;;;;;;;;5107121;27;48404;-81
2022/03/24 10:36:57;;;;;;;;;47.75;40.00;;;;;;;;5134039;27;45267;-80
2022/03/24 10:39:26;;;;;;;;;64.50;53.50;;;;;;;;5119047;27;45479;-78
2022/03/24 10:41:52;;;;;;;;;55.00;44.75;;;;;;;;5116164;27;46557;-79
2022/03/24 10:44:17;;;;;;;;;48.75;40.00;;;;;;;;5112542;27;47320;-79
2022/03/24 10:46:42;;;;;;;;;48.50;41.00;;;;;;;;5124321;27;45273;-77
2022/03/24 10:49:14;;;;;;;;;48.75;41.00;;;;;;;;5127511;27;45342;-77
2022/03/24 10:51:41;;;;;;;;;48.00;39.50;;;;;;;;5127260;27;45238;-78
2022/03/24 10:54:28;;;;;;;;;47.00;39.25;;;;;;;;5109863;27;47220;-77
2022/03/24 10:56:55;;;;;;;;;59.00;47.75;;;;;;;;5136774;27;45367;-74
2022/03/24 10:59:22;;;;;;;;;63.50;49.00;;;;;;;;5130022;27;45270;-77
2022/03/24 11:01:49;;;;;;;;;68.75;57.25;;;;;;;;5128944;27;45246;-77
2022/03/24 11:04:14;;;;;;;;;61.75;50.50;;;;;;;;5128481;27;45285;-78
2022/03/24 11:06:50;;;;;;;;;48.50;38.50;;;;;;;;5132951;27;45222;-77
2022/03/24 11:09:29;;;;;;;;;38.67;33.00;;;;;;;;5105018;27;45361;-82
2022/03/24 11:12:17;;;;;;;;;46.75;39.00;;;;;;;;5104806;27;46932;-78
2022/03/24 11:14:44;;;;;;;;;45.33;37.67;;;;;;;;5127255;27;46222;-77
2022/03/24 11:17:10;;;;;;;;;47.00;39.00;;;;;;;;5145914;27;45253;-80
2022/03/24 11:19:38;;;;;;;;;42.00;35.67;;;;;;;;5145563;27;45268;-77
2022/03/24 11:22:10;;;;;;;;;54.75;44.00;;;;;;;;5146689;27;45315;-74
2022/03/24 11:24:36;;;;;;;;;46.25;40.00;;;;;;;;5145964;27;46273;-77
2022/03/24 11:27:01;;;;;;;;;76.75;68.00;;;;;;;;5144535;27;45410;-78
2022/03/24 11:29:26;;;;;;;;;87.50;78.25;;;;;;;;5147415;27;45423;-77
2022/03/24 11:31:52;;;;;;;;;50.25;41.25;;;;;;;;5132458;27;47169;-76
2022/03/24 11:34:18;;;;;;;;;46.00;38.25;;;;;;;;5146592;27;45401;-75
2022/03/24 11:36:43;;;;;;;;;50.25;40.75;;;;;;;;5132100;27;45279;-76
2022/03/24 11:39:10;;;;;;;;;63.50;51.00;;;;;;;;5147740;27;45282;-77
2022/03/24 11:41:36;;;;;;;;;44.67;37.00;;;;;;;;5143083;27;46178;-76
2022/03/24 11:44:07;;;;;;;;;43.33;36.00;;;;;;;;5145209;27;46731;-73
2022/03/24 11:46:38;;;;;;;;;43.00;36.67;;;;;;;;5145329;27;45282;-77
2022/03/24 11:49:17;;;;;;;;;51.75;40.75;;;;;;;;5152043;27;45499;-78
2022/03/24 11:51:44;;;;;;;;;59.50;48.25;;;;;;;;5125063;27;46552;-77
2022/03/24 11:54:10;;;;;;;;;51.25;42.00;;;;;;;;5125670;27;47378;-77
2022/03/24 11:56:36;;;;;;;;;62.00;48.50;;;;;;;;5148429;27;45295;-77
2022/03/24 11:59:01;;;;;;;;;58.50;47.25;;;;;;;;5148140;27;45470;-74
2022/03/24 12:01:32;;;;;;;;;58.00;46.50;;;;;;;;5148542;27;45386;-75
2022/03/24 12:04:03;;;;;;;;;54.75;45.00;;;;;;;;5127333;27;47580;-76
2022/03/24 12:06:44;;;;;;;;;102.00;92.00;;;;;;;;5145759;27;45324;-78
2022/03/24 12:09:11;;;;;;;;;56.50;46.00;;;;;;;;5148322;27;45359;-79
2022/03/24 12:11:41;;;;;;;;;33.00;31.00;;;;;;;;5148565;27;45230;-80
2022/03/24 12:14:07;;;;;;;;;71.25;59.50;;;;;;;;5143073;27;45308;-79
2022/03/24 12:16:35;;;;;;;;;61.25;50.75;;;;;;;;5108126;27;45446;-78
2022/03/24 12:19:00;;;;;;;;;40.67;34.00;;;;;;;;5123865;27;45330;-81
2022/03/24 12:21:26;;;;;;;;;44.00;36.33;;;;;;;;5123527;27;45325;-80
2022/03/24 12:24:11;;;;;;;;;48.00;39.25;;;;;;;;5102365;27;47766;-79
2022/03/24 12:26:37;;;;;;;;;53.50;43.25;;;;;;;;5095872;27;46203;-83
2022/03/24 12:29:12;;;;;;;;;68.00;54.25;;;;;;;;5105023;27;45579;-82
2022/03/24 12:31:57;;;;;;;;;42.00;34.67;;;;;;;;5102252;27;47159;-79
2022/03/24 12:34:27;;;;;;;;;48.00;39.00;;;;;;;;5121845;27;46417;-80
2022/03/24 12:36:52;;;;;;;;;71.50;59.00;;;;;;;;5105472;27;45472;-79
2022/03/24 12:39:29;;;;;;;;;36.33;31.33;;;;;;;;5122330;27;45346;-81
2022/03/24 12:42:03;;;;;;;;;38.67;34.00;;;;;;;;5124063;27;45339;-81
2022/03/24 12:44:47;;;;;;;;;64.00;48.75;;;;;;;;5122427;27;45553;-80
2022/03/24 12:47:28;;;;;;;;;31.67;29.67;;;;;;;;5103104;27;45349;-80
2022/03/24 12:49:55;;;;;;;;;48.50;39.75;;;;;;;;5121533;27;45645;-78
2022/03/24 12:52:21;;;;;;;;;55.50;45.25;;;;;;;;5121794;27;45468;-79
2022/03/24 12:54:51;;;;;;;;;49.25;40.25;;;;;;;;5102862;27;47432;-79
2022/03/24 12:57:19;;;;;;;;;50.25;41.75;;;;;;;;5110352;27;45378;-79
2022/03/24 12:59:45;;;;;;;;;43.00;36.00;;;;;;;;5128693;27;45289;-80
2022/03/24 13:02:11;;;;;;;;;31.33;29.00;;;;;;;;5122614;27;45468;-82
2022/03/24 13:04:36;;;;;;;;;36.67;32.67;;;;;;;;5122397;27;46102;-82
2022/03/24 13:07:02;;;;;;;;;39.67;33.00;;;;;;;;5102645;27;45642;-80
2022/03/24 13:09:27;;;;;;;;;45.33;36.00;;;;;;;;5117797;27;45274;-80
2022/03/24 13:11:52;;;;;;;;;42.67;37.00;;;;;;;;5102607;27;45571;-81
2022/03/24 13:14:21;;;;;;;;;67.00;51.75;;;;;;;;5124876;27;45440;-79
2022/03/24 13:17:08;;;;;;;;;34.00;30.00;;;;;;;;5129194;27;45317;-79
2022/03/24 13:19:34;;;;;;;;;28.67;27.33;;;;;;;;5122947;27;45261;-79
2022/03/24 13:22:19;;;;;;;;;39.00;35.00;;;;;;;;5118322;27;46860;-77
2022/03/24 13:24:59;;;;;;;;;36.67;31.33;;;;;;;;5098507;27;48140;-79
2022/03/24 13:27:25;;;;;;;;;46.33;37.00;;;;;;;;5115148;27;45431;-81
2022/03/24 13:29:50;;;;;;;;;46.33;37.33;;;;;;;;5102966;27;45439;-82
2022/03/24 13:32:21;;;;;;;;;48.67;40.67;;;;;;;;5103016;27;47247;-82
2022/03/24 13:34:51;;;;;;;;;34.33;30.00;;;;;;;;5117811;27;45790;-77
2022/03/24 13:37:22;;;;;;;;;32.00;30.33;;;;;;;;5115589;27;45910;-79
2022/03/24 13:39:49;;;;;;;;;37.67;32.00;;;;;;;;5117834;27;45407;-78
2022/03/24 13:42:14;;;;;;;;;36.00;32.33;;;;;;;;5118165;27;45350;-81
2022/03/24 13:44:42;;;;;;;;;47.67;39.67;;;;;;;;5099671;27;48062;-79
2022/03/24 13:47:07;;;;;;;;;28.00;27.33;;;;;;;;5116811;27;45394;-80
2022/03/24 13:49:32;;;;;;;;;32.67;30.00;;;;;;;;5115025;27;45342;-80
2022/03/24 13:51:58;;;;;;;;;32.33;29.33;;;;;;;;5100977;27;46677;-78
2022/03/24 13:54:23;;;;;;;;;33.67;31.00;;;;;;;;5103633;27;47159;-79
2022/03/24 13:56:49;;;;;;;;;32.00;30.00;;;;;;;;5120771;27;45363;-78
2022/03/24 13:59:14;;;;;;;;;31.33;29.33;;;;;;;;5121227;27;45302;-77
2022/03/24 14:01:39;;;;;;;;;35.67;31.00;;;;;;;;5120332;27;45452;-76
2022/03/24 14:04:17;;;;;;;;;36.00;31.33;;;;;;;;5119774;27;45442;-77
2022/03/24 14:07:01;;;;;;;;;34.00;28.67;;;;;;;;5080827;27;45563;-77
2022/03/24 14:09:26;;;;;;;;;33.67;30.00;;;;;;;;5101203;27;45441;-78
2022/03/24 14:12:01;;;;;;;;;35.00;29.67;;;;;;;;5121363;27;45368;-83
2022/03/24 14:14:27;;;;;;;;;29.67;28.67;;;;;;;;5107529;27;47459;-79